Latest Weather Observations for Groote Eylandt Airport

IDD60801

Issued at 5:31 am CST Thursday 29 September 2016 (issued every 30 minutes, with the page automatically refreshed every 10 minutes)

About weather observations | Map of weather stations | Latest weather observations for NT | Other Formats
Station Details ID: 014518 Name: GROOTE EYLANDT AIRPORT Lat: -13.97 Lon: 136.46 Height: 13.7 m
Data from the previous 72 hours. | See also: Recent months at Groote Eylandt Airport
Date/Time
CST
Temp
°C
App
Temp
°C
Dew
Point
°C
Rel
Hum
%
Delta-T
°C
Wind Press
QNH
hPa
Press
MSL
hPa
Rain since
9am
mm
Dir  Spd
km/h
Gust
km/h
Spd
kts
Gust
kts
29/05:30am 25.7 29.9 23.2 86 1.7 NNE 6 9 3 5 1008.5 1008.4 0.0
29/05:00am 25.9 30.1 23.2 85 1.8 NNE 6 7 3 4 1008.2 1008.1 0.0
29/04:30am 26.0 30.2 23.1 84 2.0 N 6 9 3 5 1008.1 1008.0 0.0
29/04:00am 26.3 30.7 23.4 84 2.0 N 6 9 3 5 1008.2 1008.1 0.0
29/03:30am 26.4 30.6 23.5 84 2.0 NNW 7 9 4 5 1008.3 1008.2 0.0
29/03:00am 26.7 30.8 23.0 80 2.5 N 6 7 3 4 1008.3 1008.2 0.0
29/02:30am 26.9 30.4 22.9 79 2.7 NNE 9 15 5 8 1008.4 1008.3 0.0
29/02:00am 27.1 31.0 23.6 81 2.4 NNE 9 13 5 7 1008.8 1008.7 0.0
29/01:30am 27.2 30.9 23.9 82 2.3 NNE 11 15 6 8 1008.8 1008.7 0.0
29/01:00am 27.3 30.8 24.2 83 2.1 NNE 13 19 7 10 1009.2 1009.1 0.0
29/12:30am 27.3 31.6 24.2 83 2.1 NNE 9 11 5 6 1009.5 1009.4 0.0
29/12:00am 27.4 30.7 23.8 81 2.5 NNE 13 17 7 9 1009.7 1009.6 0.0
 
Date/Time
CST
Temp
°C
App
Temp
°C
Dew
Point
°C
Rel
Hum
%
Delta-T
°C
Wind Press
QNH
hPa
Press
MSL
hPa
Rain since
9am
mm
Dir  Spd
km/h
Gust
km/h
Spd
kts
Gust
kts
28/11:30pm 27.2 30.8 23.7 81 2.4 NE 11 15 6 8 1009.8 1009.7 0.0
28/11:00pm 27.2 30.9 23.9 82 2.3 NE 11 17 6 9 1009.9 1009.8 0.0
28/10:30pm 27.3 30.7 24.0 82 2.3 NE 13 19 7 10 1010.0 1009.9 0.0
28/10:00pm 27.4 30.5 24.1 82 2.3 NE 15 22 8 12 1009.8 1009.7 0.0
28/09:30pm 27.4 30.8 24.1 82 2.3 NE 13 19 7 10 1009.8 1009.7 0.0
28/09:00pm 27.6 30.6 24.0 81 2.5 NE 15 22 8 12 1009.5 1009.4 0.0
28/08:30pm 27.7 30.1 23.7 79 2.8 ENE 17 24 9 13 1009.3 1009.2 0.0
28/08:00pm 27.9 30.7 23.7 78 2.9 ENE 15 24 8 13 1008.8 1008.7 0.0
28/07:30pm 28.2 31.1 23.8 77 3.0 ENE 15 22 8 12 1008.7 1008.6 0.0
28/07:00pm 28.3 30.2 23.4 75 3.4 ENE 19 28 10 15 1008.5 1008.4 0.0
28/06:30pm 28.8 30.7 23.7 74 3.5 ENE 20 32 11 17 1008.3 1008.2 0.0
28/06:00pm 29.5 31.2 23.4 69 4.2 NE 20 30 11 16 1008.1 1008.0 0.0
28/05:30pm 30.9 33.1 23.3 64 5.2 NE 17 24 9 13 1007.9 1007.8 0.0
28/05:00pm 31.9 33.7 22.6 58 6.4 NNE 17 24 9 13 1007.8 1007.7 0.0
28/04:30pm 33.3 35.1 21.1 48 8.2 NE 13 17 7 9 1007.6 1007.5 0.0
28/04:00pm 34.1 36.1 20.8 45 8.9 NE 11 17 6 9 1007.4 1007.3 0.0
28/03:30pm 33.5 36.1 22.0 51 7.9 NE 11 19 6 10 1007.7 1007.6 0.0
28/03:00pm 33.7 33.4 18.2 39 10.1 N 17 22 9 12 1007.9 1007.8 0.0
28/02:30pm 33.1 33.9 21.3 50 8.0 N 19 28 10 15 1008.3 1008.2 0.0
28/02:00pm 33.2 34.9 22.3 52 7.5 N 17 26 9 14 1008.5 1008.4 0.0
28/01:30pm 32.9 33.9 21.7 51 7.6 N 19 30 10 16 1008.8 1008.7 0.0
28/01:00pm 32.9 34.0 23.0 56 6.8 NNW 22 32 12 17 1009.0 1008.9 0.0
28/12:30pm 33.0 33.5 23.3 56 6.7 NW 26 35 14 19 1009.3 1009.2 0.0
28/12:00pm 33.4 36.4 23.4 55 6.9 N 13 20 7 11 1009.6 1009.5 0.0
28/11:30am 32.9 35.5 22.7 55 7.0 NW 13 28 7 15 1010.0 1009.9 0.0
28/11:00am 32.5 34.5 22.9 57 6.6 N 17 24 9 13 1010.4 1010.3 0.0
28/10:30am 32.1 35.2 23.6 60 5.9 N 13 20 7 11 1010.7 1010.6 0.0
28/10:00am 31.3 34.6 23.9 64 5.1 NNW 13 20 7 11 1011.0 1010.9 0.0
28/09:30am 30.3 32.8 23.2 65 4.9 N 15 22 8 12 1011.1 1011.0 0.0
28/09:00am 29.8 32.8 23.3 68 4.5 N 13 19 7 10 1011.3 1011.2 0.2
28/08:30am 29.0 31.4 23.7 73 3.7 NNE 17 26 9 14 1011.3 1011.2 0.2
28/08:09am 28.5 31.6 24.1 77 3.0 N 15 22 8 12 1011.2 1011.1 0.2
28/08:00am 28.2 32.6 24.4 80 2.6 NNE 9 20 5 11 1011.2 1011.1 0.2
28/07:32am 26.6 31.2 24.8 90 1.3 ENE 9 13 5 7 1011.0 1010.9 0.2
28/07:30am 26.6 31.2 24.8 90 1.3 ENE 9 13 5 7 1011.0 1010.9 0.2
28/07:00am 25.8 30.3 24.6 93 0.8 ENE 9 11 5 6 1010.8 1010.7 0.2
28/06:31am 25.1 29.4 24.2 95 0.6 ENE 9 11 5 6 1010.2 1010.1 0.2
28/06:30am 25.1 29.4 24.2 95 0.6 ENE 9 11 5 6 1010.2 1010.1 0.2
28/06:00am 24.9 29.3 24.4 97 0.3 NE 9 13 5 7 1009.5 1009.4 0.2
28/05:59am 24.9 28.9 24.4 97 0.3 NE 11 13 6 7 1009.5 1009.4 0.2
28/05:30am 24.4 28.9 23.7 96 0.5 NE 6 11 3 6 1009.0 1008.9 0.2
28/05:00am 24.6 28.8 24.1 97 0.3 ENE 9 11 5 6 1008.9 1008.8 0.2
28/04:30am 24.5 28.6 24.0 97 0.3 NE 9 11 5 6 1008.8 1008.7 0.2
28/04:22am 24.4 28.7 23.7 96 0.5 NE 7 9 4 5 1008.9 1008.8 0.2
28/04:00am 24.5 29.1 23.8 96 0.5 NNE 6 9 3 5 1008.9 1008.8 0.2
28/03:53am 24.4 29.3 23.7 96 0.5 NE 4 7 2 4 1008.8 1008.7 0.2
28/03:30am 23.5 28.4 22.3 93 0.8 CALM 0 0 0 0 1008.8 1008.7 0.2
28/03:00am 23.5 28.1 22.5 94 0.7 E 2 6 1 3 1008.9 1008.8 0.2
28/02:30am 23.6 27.1 22.8 95 0.5 E 9 11 5 6 1008.9 1008.8 0.2
28/02:00am 23.7 27.0 22.5 93 0.8 E 9 9 5 5 1009.1 1009.0 0.2
28/01:30am 24.7 28.8 24.0 96 0.5 ENE 9 11 5 6 1009.3 1009.2 0.2
28/01:00am 23.5 28.4 22.3 93 0.8 CALM 0 0 0 0 1009.6 1009.5 0.2
28/12:30am 23.8 27.8 22.1 90 1.1 E 4 6 2 3 1009.9 1009.8 0.2
28/12:00am 24.2 27.9 22.3 89 1.3 ESE 6 6 3 3 1010.3 1010.2 0.2
 
Date/Time
CST
Temp
°C
App
Temp
°C
Dew
Point
°C
Rel
Hum
%
Delta-T
°C
Wind Press
QNH
hPa
Press
MSL
hPa
Rain since
9am
mm
Dir  Spd
km/h
Gust
km/h
Spd
kts
Gust
kts
27/11:30pm 24.7 29.9 22.8 89 1.3 CALM 0 0 0 0 1010.5 1010.4 0.2
27/11:00pm 24.8 29.1 22.7 88 1.4 ESE 4 7 2 4 1010.7 1010.6 0.2
27/10:30pm 24.4 28.7 21.9 86 1.7 E 2 7 1 4 1010.9 1010.8 0.2
27/10:00pm 25.2 29.9 21.9 82 2.2 CALM 0 0 0 0 1010.6 1010.5 0.2
27/09:30pm 25.7 29.4 22.2 81 2.3 E 6 7 3 4 1010.5 1010.4 0.2
27/09:00pm 25.9 30.7 22.2 80 2.5 CALM 0 0 0 0 1010.1 1010.0 0.2
27/08:30pm 25.9 29.8 21.8 78 2.7 E 4 6 2 3 1009.9 1009.8 0.2
27/08:00pm 27.4 31.7 22.6 75 3.2 E 4 7 2 4 1009.5 1009.4 0.2
27/07:30pm 28.1 32.6 22.3 70 3.9 ESE 2 6 1 3 1009.3 1009.2 0.2
27/07:00pm 28.5 32.1 22.3 69 4.2 SE 7 9 4 5 1009.2 1009.1 0.2
27/06:30pm 29.4 33.3 21.9 64 5.1 SSE 4 7 2 4 1008.9 1008.8 0.2
27/06:00pm 30.6 33.2 20.5 54 6.7 ENE 7 13 4 7 1008.7 1008.6 0.2
27/05:30pm 32.2 33.2 19.5 47 8.4 NNE 13 17 7 9 1008.3 1008.2 0.2
27/05:00pm 33.3 34.1 19.0 42 9.4 NE 13 20 7 11 1007.7 1007.6 0.2
27/04:30pm 34.2 35.0 19.1 41 9.9 NNE 13 22 7 12 1007.5 1007.4 0.2
27/04:00pm 34.1 38.0 22.5 50 8.0 SW 6 13 3 7 1007.5 1007.4 0.2
27/03:30pm 32.5 35.7 23.7 59 6.1 SSW 13 20 7 11 1007.6 1007.5 0.2
27/03:00pm 32.9 37.0 25.2 64 5.5 WSW 13 20 7 11 1007.6 1007.5 0.2
27/02:30pm 32.1 35.8 25.2 67 4.9 WSW 15 24 8 13 1008.0 1007.9 0.2
27/02:00pm 31.6 34.8 25.0 68 4.7 SW 17 26 9 14 1008.2 1008.1 0.2
27/01:30pm 32.5 35.5 25.3 66 5.1 WSW 19 28 10 15 1008.4 1008.3 0.2
27/01:00pm 35.0 38.7 24.6 55 7.3 WNW 13 19 7 10 1008.9 1008.8 0.2
27/12:30pm 35.4 38.1 21.3 44 9.6 NNE 9 19 5 10 1009.4 1009.3 0.2
27/12:00pm 34.7 35.5 19.9 42 9.9 NNE 15 22 8 12 1009.9 1009.8 0.2
27/11:30am 33.7 34.5 19.0 42 9.6 ENE 13 20 7 11 1010.8 1010.7 0.2
27/11:00am 33.3 34.8 19.7 44 9.0 NW 11 19 6 10 1011.2 1011.1 0.2
27/10:30am 32.8 34.8 20.7 49 8.1 E 11 20 6 11 1011.7 1011.6 0.2
27/10:00am 31.1 34.1 21.9 58 6.2 E 9 15 5 8 1012.1 1012.0 0.2
27/09:30am 30.5 33.5 22.7 63 5.3 ESE 11 17 6 9 1012.3 1012.2 0.0
27/09:00am 28.9 33.0 24.5 77 3.1 E 11 17 6 9 1012.3 1012.2 0.0
27/08:30am 27.5 31.5 24.4 83 2.2 NNE 11 15 6 8 1012.2 1012.1 0.0
27/08:00am 26.0 30.8 24.4 91 1.1 ENE 7 13 4 7 1012.3 1012.2 0.0
27/07:30am 23.9 27.8 23.6 98 0.2 ENE 9 13 5 7 1011.8 1011.7 0.0
27/07:24am 23.5 27.2 23.3 99 0.1 ENE 9 13 5 7 1011.6 1011.5 0.0
27/07:00am 21.4 24.4 21.2 99 0.1 ESE 7 9 4 5 1011.1 1011.0 0.0
27/06:49am 20.7 23.9 20.5 99 0.1 ESE 4 7 2 4 1010.9 1010.8 0.0
27/06:30am 20.3 24.1 20.1 99 0.1 CALM 0 0 0 0 1010.5 1010.4 0.0
27/06:00am 20.1 23.7 19.8 98 0.2 CALM 0 0 0 0 1009.9 1009.8 0.0
27/05:30am 20.2 23.9 19.9 98 0.2 CALM 0 0 0 0 1009.6 1009.5 0.0
27/05:00am 20.3 24.0 20.0 98 0.2 CALM 0 0 0 0 1009.3 1009.2 0.0
27/04:30am 20.8 24.8 20.5 98 0.2 CALM 0 0 0 0 1009.1 1009.0 0.0
27/04:00am 20.9 24.8 20.4 97 0.3 CALM 0 0 0 0 1008.9 1008.8 0.0
27/03:30am 21.0 25.0 20.5 97 0.3 CALM 0 0 0 0 1008.8 1008.7 0.0
27/03:09am 20.8 24.5 20.0 95 0.5 CALM 0 0 0 0 1008.8 1008.7 0.0
27/03:08am 20.8 24.5 20.0 95 0.5 CALM 0 0 0 0 1008.8 1008.7 0.0
27/03:00am 20.9 24.6 19.9 94 0.6 CALM 0 0 0 0 1008.8 1008.7 0.0
27/02:30am 21.6 25.6 20.6 94 0.6 CALM 0 0 0 0 1009.0 1008.9 0.0
27/02:00am 21.9 25.1 21.2 96 0.5 ESE 6 7 3 4 1009.3 1009.2 0.0
27/01:30am 22.0 25.2 21.2 95 0.5 ESE 6 6 3 3 1010.0 1009.9 0.0
27/01:00am 22.5 26.9 21.3 93 0.8 CALM 0 0 0 0 1010.5 1010.4 0.0
27/12:30am 23.0 27.0 22.0 94 0.7 ESE 4 7 2 4 1010.8 1010.7 0.0
27/12:00am 23.2 27.9 22.0 93 0.8 CALM 0 0 0 0 1011.0 1010.9 0.0
 
Date/Time
CST
Temp
°C
App
Temp
°C
Dew
Point
°C
Rel
Hum
%
Delta-T
°C
Wind Press
QNH
hPa
Press
MSL
hPa
Rain since
9am
mm
Dir  Spd
km/h
Gust
km/h
Spd
kts
Gust
kts
26/11:30pm 23.7 28.7 22.5 93 0.8 CALM 0 0 0 0 1011.2 1011.1 0.0
26/11:00pm 24.3 29.6 23.1 93 0.8 CALM 0 0 0 0 1011.6 1011.5 0.0
26/10:30pm 24.6 30.0 23.2 92 0.9 CALM 0 0 0 0 1011.5 1011.4 0.0
26/10:00pm 25.2 29.4 23.4 90 1.2 ESE 7 7 4 4 1011.4 1011.3 0.0
26/09:30pm 25.4 29.9 23.6 90 1.2 SE 6 7 3 4 1011.3 1011.2 0.0
26/09:00pm 25.6 30.0 23.5 88 1.4 SSE 6 7 3 4 1011.2 1011.1 0.0
26/08:30pm 26.5 31.6 24.0 86 1.7 SSE 4 7 2 4 1010.8 1010.7 0.0
26/08:00pm 27.0 31.8 24.1 84 2.0 S 6 7 3 4 1010.7 1010.6 0.0
26/07:30pm 27.4 32.3 24.3 83 2.1 S 6 9 3 5 1010.5 1010.4 0.0
26/07:00pm 27.8 32.3 24.0 80 2.6 SSE 7 13 4 7 1010.0 1009.9 0.0
26/06:30pm 28.4 32.5 24.0 77 3.0 S 9 15 5 8 1009.5 1009.4 0.0
26/06:00pm 29.2 33.3 23.9 73 3.7 SSW 9 15 5 8 1009.1 1009.0 0.0
26/05:30pm 29.6 33.5 24.2 73 3.8 SSW 11 17 6 9 1008.9 1008.8 0.0
26/05:00pm 30.0 33.6 24.4 72 3.9 SW 13 22 7 12 1008.6 1008.5 0.0
26/04:30pm 32.5 37.3 24.5 62 5.6 WNW 7 13 4 7 1008.2 1008.1 0.0
26/04:00pm 31.9 35.4 24.2 63 5.4 WNW 13 17 7 9 1008.3 1008.2 0.0
26/03:30pm 31.2 33.7 23.8 64 5.1 WNW 17 20 9 11 1008.6 1008.5 0.0
26/03:00pm 33.7 36.3 21.2 48 8.5 NW 9 17 5 9 1008.7 1008.6 0.0
26/02:30pm 34.2 35.6 18.7 40 10.2 N 9 17 5 9 1009.0 1008.9 0.0
26/02:00pm 31.5 35.7 24.1 65 5.2 NNW 9 15 5 8 1009.3 1009.2 0.0
26/01:30pm 31.6 35.7 24.5 66 5.0 W 11 17 6 9 1009.8 1009.7 0.0
26/01:00pm 31.6 36.2 24.7 67 4.8 W 9 15 5 8 1010.1 1010.0 0.0
26/12:30pm 30.4 34.5 24.5 70 4.1 WSW 11 17 6 9 1010.6 1010.5 0.0
26/12:00pm 29.5 33.1 24.4 74 3.6 SW 13 20 7 11 1011.3 1011.2 0.0
26/11:30am 29.7 33.4 23.9 71 4.0 WSW 11 20 6 11 1011.6 1011.5 0.0
26/11:00am 30.3 33.3 24.0 69 4.4 WSW 15 20 8 11 1011.7 1011.6 0.0
26/10:30am 31.6 34.7 22.9 60 6.0 E 11 19 6 10 1011.9 1011.8 0.0
26/10:00am 30.9 33.6 22.8 62 5.5 E 13 20 7 11 1011.9 1011.8 0.0
26/09:30am 30.4 33.2 22.3 62 5.5 E 11 17 6 9 1012.1 1012.0 0.0
26/09:00am 29.2 32.9 23.2 70 4.1 NE 9 13 5 7 1012.0 1011.9 0.0
26/08:30am 28.0 31.0 24.0 79 2.8 NE 15 20 8 11 1012.0 1011.9 0.0
26/08:00am 26.6 31.2 24.8 90 1.3 ENE 9 13 5 7 1012.1 1012.0 0.0
26/07:30am 24.6 30.4 23.9 96 0.5 CALM 0 6 0 3 1011.9 1011.8 0.0
26/07:00am 23.5 27.2 23.2 98 0.2 E 9 13 5 7 1011.4 1011.3 0.0
26/06:30am 22.2 25.4 21.7 97 0.3 E 7 9 4 5 1010.5 1010.4 0.0
26/06:00am 21.6 25.0 20.9 96 0.5 ESE 4 6 2 3 1009.8 1009.7 0.0

Other Formats:

Comma delimited format used in spreadsheet applications
http://www.bom.gov.au/fwo/IDD60801/IDD60801.94153.axf

JavaScript Object Notation format (JSON) in row-major order
http://www.bom.gov.au/fwo/IDD60801/IDD60801.94153.json